Time;durP1;ratioP1;P1;durP2;ratioP2;P2;SDS_P1;SDS_P2;PMS_P1;PMS_P2;Temp;Humidity;BMP_temperature;BMP_pressure;BME280_temperature;BME280_humidity;BME280_pressure;Samples;Min_cycle;Max_cycle;Signal;HPM_P1;HPM_P2
2024/02/19 00:01:13;;;;;;;43.80;12.37;;;9.20;99.90;;;;;;5002231;28;20232;-61
2024/02/19 00:03:45;;;;;;;40.57;12.63;;;9.20;99.90;;;;;;4991174;28;20249;-61
2024/02/19 00:06:14;;;;;;;35.37;12.60;;;9.20;99.90;;;;;;4995003;28;20578;-61
2024/02/19 00:08:42;;;;;;;35.00;12.27;;;9.20;99.90;;;;;;4997535;28;20229;-61
2024/02/19 00:11:13;;;;;;;42.70;12.77;;;9.20;99.90;;;;;;4997616;28;20666;-60
2024/02/19 00:13:41;;;;;;;38.27;12.33;;;9.20;99.90;;;;;;4995811;28;20203;-61
2024/02/19 00:16:09;;;;;;;43.17;11.90;;;9.20;99.90;;;;;;4998690;28;20221;-61
2024/02/19 00:18:45;;;;;;;46.83;12.33;;;9.20;99.90;;;;;;4995487;28;20713;-61
2024/02/19 00:21:17;;;;;;;39.03;12.47;;;9.20;99.90;;;;;;4999540;28;20269;-61
2024/02/19 00:23:45;;;;;;;42.90;12.57;;;9.30;99.90;;;;;;4995522;28;20602;-61
2024/02/19 00:26:14;;;;;;;36.33;11.50;;;9.20;99.90;;;;;;4994941;28;20209;-60
2024/02/19 00:28:42;;;;;;;43.73;12.77;;;9.20;99.90;;;;;;5015000;28;20225;-61
2024/02/19 00:31:12;;;;;;;41.33;11.67;;;9.30;99.90;;;;;;5001946;28;20222;-60
2024/02/19 00:33:40;;;;;;;39.77;11.87;;;9.20;99.90;;;;;;5004712;28;20222;-61
2024/02/19 00:36:10;;;;;;;35.80;12.20;;;9.20;99.90;;;;;;5017637;28;20224;-61
2024/02/19 00:38:38;;;;;;;40.80;12.07;;;9.20;99.90;;;;;;5017408;28;20226;-61
2024/02/19 00:41:07;;;;;;;41.73;12.07;;;9.20;99.90;;;;;;5018147;28;20191;-61
2024/02/19 00:43:36;;;;;;;44.27;13.00;;;9.20;99.90;;;;;;5016742;28;20222;-61
2024/02/19 00:46:05;;;;;;;38.17;13.47;;;9.20;99.90;;;;;;5015808;28;20275;-60
2024/02/19 00:48:33;;;;;;;43.90;12.63;;;9.20;99.90;;;;;;5020238;28;20711;-61
2024/02/19 00:51:04;;;;;;;52.17;14.23;;;9.20;99.90;;;;;;5014405;28;20240;-61
2024/02/19 00:53:38;;;;;;;40.83;13.43;;;9.20;99.90;;;;;;5016505;28;20193;-60
2024/02/19 00:56:06;;;;;;;42.10;12.37;;;9.20;99.90;;;;;;5015426;28;20213;-60
2024/02/19 00:58:37;;;;;;;38.43;12.10;;;9.20;99.90;;;;;;5019357;28;20235;-60
2024/02/19 01:01:06;;;;;;;42.03;12.33;;;9.20;99.90;;;;;;5016869;28;20312;-60
2024/02/19 01:03:35;;;;;;;37.20;10.30;;;9.20;99.90;;;;;;5015269;28;20236;-60
2024/02/19 01:06:04;;;;;;;35.57;10.97;;;9.20;99.90;;;;;;5014679;28;20222;-59
2024/02/19 01:08:32;;;;;;;42.77;10.83;;;9.20;99.90;;;;;;5013764;28;20200;-60
2024/02/19 01:11:02;;;;;;;32.90;10.07;;;9.20;99.90;;;;;;5013261;28;20203;-60
2024/02/19 01:13:30;;;;;;;42.63;11.03;;;9.20;99.90;;;;;;5013662;28;20217;-60
2024/02/19 01:15:58;;;;;;;36.60;10.17;;;9.20;99.90;;;;;;5011052;28;20217;-59
2024/02/19 01:18:27;;;;;;;36.73;10.57;;;9.20;99.90;;;;;;5004117;28;20230;-60
2024/02/19 01:20:56;;;;;;;31.73;9.97;;;9.20;99.90;;;;;;5015718;28;20284;-60
2024/02/19 01:23:23;;;;;;;32.73;9.70;;;9.20;99.90;;;;;;5010408;28;20218;-60
2024/02/19 01:25:52;;;;;;;30.23;10.07;;;9.20;99.90;;;;;;5016465;28;20660;-61
2024/02/19 01:28:21;;;;;;;29.17;10.50;;;9.10;99.90;;;;;;5017100;28;20214;-60
2024/02/19 01:30:50;;;;;;;33.13;10.37;;;9.10;99.90;;;;;;5017658;28;20218;-61
2024/02/19 01:33:21;;;;;;;29.47;9.87;;;9.10;99.90;;;;;;5017989;28;20267;-61
2024/02/19 01:35:49;;;;;;;31.63;9.10;;;9.10;99.90;;;;;;5017184;28;20230;-60
2024/02/19 01:38:18;;;;;;;33.93;10.13;;;9.10;99.90;;;;;;5012428;28;20302;-60
2024/02/19 01:40:46;;;;;;;35.90;10.07;;;9.10;99.90;;;;;;5013295;28;20209;-59
2024/02/19 01:43:15;;;;;;;42.23;10.57;;;9.10;99.90;;;;;;5013020;28;20218;-60
2024/02/19 01:45:45;;;;;;;29.60;9.33;;;9.00;99.90;;;;;;5018044;28;20216;-60
2024/02/19 01:48:14;;;;;;;34.20;10.57;;;9.10;99.90;;;;;;5011283;28;20229;-60
2024/02/19 01:50:45;;;;;;;28.00;8.60;;;9.10;99.90;;;;;;5018993;28;20699;-60
2024/02/19 01:53:13;;;;;;;27.63;9.23;;;9.00;99.90;;;;;;5017106;28;20284;-60
2024/02/19 01:55:42;;;;;;;33.03;9.23;;;9.00;99.90;;;;;;5011249;28;20228;-59
2024/02/19 01:58:12;;;;;;;23.37;9.07;;;9.00;99.90;;;;;;5018691;28;20214;-60
2024/02/19 02:00:41;;;;;;;29.87;9.70;;;8.90;99.90;;;;;;5002718;28;20314;-60
2024/02/19 02:03:17;;;;;;;33.33;9.37;;;9.00;99.90;;;;;;4991800;28;20211;-60
2024/02/19 02:05:47;;;;;;;35.37;9.53;;;8.90;99.90;;;;;;4993866;28;20230;-60
2024/02/19 02:08:16;;;;;;;28.93;9.10;;;8.90;99.90;;;;;;4995306;28;20194;-60
2024/02/19 02:10:44;;;;;;;30.97;10.80;;;9.00;99.90;;;;;;4990249;28;20211;-61
2024/02/19 02:13:12;;;;;;;28.27;9.60;;;9.00;99.90;;;;;;4995462;28;20591;-60
2024/02/19 02:15:41;;;;;;;24.03;8.83;;;9.00;99.90;;;;;;4995180;28;20225;-60
2024/02/19 02:18:15;;;;;;;32.97;9.90;;;9.00;99.90;;;;;;4993821;28;20713;-61
2024/02/19 02:20:45;;;;;;;33.27;9.73;;;9.00;99.90;;;;;;4994354;28;20225;-60
2024/02/19 02:23:16;;;;;;;28.00;9.70;;;9.00;99.90;;;;;;4995304;28;20215;-60
2024/02/19 02:25:44;;;;;;;26.83;9.60;;;9.00;99.90;;;;;;4996778;28;20573;-60
2024/02/19 02:28:14;;;;;;;31.10;10.10;;;9.00;99.90;;;;;;4991921;28;20238;-60
2024/02/19 02:30:43;;;;;;;28.83;9.73;;;9.00;99.90;;;;;;5008198;28;20234;-60
2024/02/19 02:33:11;;;;;;;26.10;9.23;;;9.00;99.90;;;;;;5018844;28;20229;-60
2024/02/19 02:35:39;;;;;;;26.93;9.13;;;9.00;99.90;;;;;;5017952;28;20650;-61
2024/02/19 02:38:08;;;;;;;29.67;8.90;;;9.00;99.90;;;;;;5022797;28;20199;-60
2024/02/19 02:40:37;;;;;;;28.43;10.00;;;9.00;99.90;;;;;;5015436;28;20636;-60
2024/02/19 02:43:05;;;;;;;35.63;9.93;;;9.00;99.90;;;;;;5014280;28;20320;-61
2024/02/19 02:45:35;;;;;;;29.77;9.70;;;9.00;99.90;;;;;;5013949;28;20226;-60
2024/02/19 02:48:03;;;;;;;26.20;8.97;;;9.00;99.90;;;;;;5021797;28;20226;-61
2024/02/19 02:50:32;;;;;;;32.63;10.00;;;9.00;99.90;;;;;;5011905;28;20198;-61
2024/02/19 02:53:00;;;;;;;27.23;9.27;;;9.00;99.90;;;;;;5023818;28;20197;-60
2024/02/19 02:55:28;;;;;;;32.50;10.53;;;9.00;99.90;;;;;;5017443;28;20229;-60
2024/02/19 02:57:57;;;;;;;30.10;9.67;;;9.00;99.90;;;;;;5017357;28;20218;-60
2024/02/19 03:00:26;;;;;;;22.77;9.20;;;8.90;99.90;;;;;;5018379;28;20229;-61
2024/02/19 03:02:55;;;;;;;26.80;9.07;;;8.90;99.90;;;;;;5014036;28;20778;-61
2024/02/19 03:05:23;;;;;;;38.47;9.33;;;8.90;99.90;;;;;;5013681;28;20225;-60
2024/02/19 03:07:52;;;;;;;24.90;9.60;;;8.80;99.90;;;;;;5017448;28;20515;-60
2024/02/19 03:10:20;;;;;;;21.40;9.10;;;8.80;99.90;;;;;;5018841;28;20214;-61
2024/02/19 03:12:48;;;;;;;30.57;9.73;;;8.80;99.90;;;;;;5021053;28;20564;-61
2024/02/19 03:15:17;;;;;;;30.70;10.23;;;8.80;99.90;;;;;;5014400;28;20971;-61
2024/02/19 03:17:45;;;;;;;31.77;10.23;;;8.80;99.90;;;;;;5014113;28;21455;-61
2024/02/19 03:20:18;;;;;;;35.33;10.80;;;8.70;99.90;;;;;;5015903;28;20213;-60
2024/02/19 03:22:47;;;;;;;27.93;10.03;;;8.70;99.90;;;;;;5015731;28;20226;-61
2024/02/19 03:25:15;;;;;;;33.73;9.70;;;8.60;99.90;;;;;;5013296;28;20248;-61
2024/02/19 03:27:43;;;;;;;39.73;10.50;;;8.50;99.90;;;;;;5016556;28;20230;-61
2024/02/19 03:30:13;;;;;;;34.73;10.00;;;8.50;99.90;;;;;;5017758;28;20221;-61
2024/02/19 03:32:42;;;;;;;36.83;11.87;;;8.50;99.90;;;;;;5009218;28;20239;-61
2024/02/19 03:35:10;;;;;;;35.47;12.10;;;8.50;99.90;;;;;;5020498;28;20229;-61
2024/02/19 03:37:40;;;;;;;40.93;12.50;;;8.50;99.90;;;;;;5015662;28;20225;-61
2024/02/19 03:40:10;;;;;;;36.10;11.77;;;8.50;99.90;;;;;;5020106;28;20224;-61
2024/02/19 03:42:39;;;;;;;26.97;12.37;;;8.50;99.90;;;;;;5020576;28;20217;-61
2024/02/19 03:45:07;;;;;;;41.80;13.33;;;8.50;99.90;;;;;;5014294;28;20282;-61
2024/02/19 03:47:36;;;;;;;41.37;13.80;;;8.50;99.90;;;;;;5013462;28;20337;-61
2024/02/19 03:50:04;;;;;;;35.80;12.90;;;8.60;99.90;;;;;;5018379;28;20198;-60
2024/02/19 03:52:32;;;;;;;35.63;13.73;;;8.60;99.90;;;;;;5017126;28;20225;-61
2024/02/19 03:55:02;;;;;;;37.03;13.57;;;8.60;99.90;;;;;;5014252;28;20222;-60
2024/02/19 03:57:31;;;;;;;38.60;13.50;;;8.60;99.90;;;;;;5014443;28;20220;-61
2024/02/19 03:59:59;;;;;;;42.03;13.57;;;8.60;99.90;;;;;;5019406;28;20268;-60
2024/02/19 04:02:27;;;;;;;32.97;13.90;;;8.60;99.90;;;;;;5016478;28;20672;-60
2024/02/19 04:04:56;;;;;;;39.90;12.97;;;8.60;99.90;;;;;;5015246;28;20210;-61
2024/02/19 04:07:25;;;;;;;40.20;14.57;;;8.60;99.90;;;;;;5017605;28;20312;-60
2024/02/19 04:09:53;;;;;;;41.53;13.63;;;8.60;99.90;;;;;;5014206;28;20233;-61
2024/02/19 04:12:23;;;;;;;38.10;13.50;;;8.70;99.90;;;;;;5015481;28;20321;-60
2024/02/19 04:14:51;;;;;;;31.30;13.50;;;8.70;99.90;;;;;;5014306;28;20229;-61
2024/02/19 04:17:20;;;;;;;35.27;12.93;;;8.70;99.90;;;;;;5018333;28;20645;-61
2024/02/19 04:19:48;;;;;;;41.93;13.80;;;8.70;99.90;;;;;;5018030;28;20185;-61
2024/02/19 04:22:16;;;;;;;42.33;14.00;;;8.70;99.90;;;;;;5019109;28;20623;-61
2024/02/19 04:24:45;;;;;;;31.53;13.27;;;8.80;99.90;;;;;;5015436;28;20217;-61
2024/02/19 04:27:14;;;;;;;40.43;13.87;;;8.80;99.90;;;;;;5017261;28;20245;-61
2024/02/19 04:29:44;;;;;;;37.53;13.63;;;8.80;99.90;;;;;;5019417;28;20221;-60
2024/02/19 04:32:12;;;;;;;36.60;14.20;;;8.80;99.90;;;;;;5018205;28;20510;-60
2024/02/19 04:34:40;;;;;;;39.47;14.40;;;8.80;99.90;;;;;;5015762;28;20218;-61
2024/02/19 04:37:09;;;;;;;36.07;13.63;;;8.80;99.90;;;;;;5024064;28;20234;-61
2024/02/19 04:39:37;;;;;;;39.77;13.53;;;8.80;99.90;;;;;;5017123;28;20715;-60
2024/02/19 04:42:06;;;;;;;37.87;14.00;;;8.80;99.90;;;;;;5021556;28;20221;-61
2024/02/19 04:44:34;;;;;;;39.80;14.80;;;8.80;99.90;;;;;;5016283;28;20254;-61
2024/02/19 04:47:04;;;;;;;34.00;13.93;;;8.80;99.90;;;;;;5018653;28;20263;-61
2024/02/19 04:49:32;;;;;;;38.30;15.00;;;8.80;99.90;;;;;;5018704;28;20291;-60
2024/02/19 04:52:01;;;;;;;41.00;14.70;;;8.80;99.90;;;;;;5013739;28;20214;-60
2024/02/19 04:54:29;;;;;;;34.57;13.87;;;8.80;99.90;;;;;;5011732;28;20209;-60
2024/02/19 04:56:57;;;;;;;32.97;14.27;;;8.80;99.90;;;;;;5015832;28;20234;-60
2024/02/19 04:59:25;;;;;;;37.07;14.57;;;8.80;99.90;;;;;;5016978;28;20198;-61
2024/02/19 05:01:54;;;;;;;32.97;14.33;;;8.80;99.90;;;;;;5013520;28;20213;-60
2024/02/19 05:04:26;;;;;;;42.73;14.60;;;8.80;99.90;;;;;;5016872;28;20249;-61
2024/02/19 05:06:54;;;;;;;36.17;15.03;;;8.80;99.90;;;;;;5016867;28;20271;-61
2024/02/19 05:09:23;;;;;;;34.77;13.77;;;8.90;99.90;;;;;;5015788;28;20213;-61
2024/02/19 05:11:51;;;;;;;33.23;13.87;;;8.80;99.90;;;;;;5015934;28;20229;-61
2024/02/19 05:14:19;;;;;;;32.03;14.10;;;8.90;99.90;;;;;;5017819;28;20189;-62
2024/02/19 05:16:47;;;;;;;36.30;13.93;;;8.90;99.90;;;;;;5013438;28;20194;-61
2024/02/19 05:19:15;;;;;;;31.73;13.30;;;8.90;99.90;;;;;;5015970;28;20222;-61
2024/02/19 05:21:47;;;;;;;34.67;12.67;;;8.90;99.90;;;;;;5019525;28;20258;-61
2024/02/19 05:24:17;;;;;;;34.30;12.97;;;8.90;99.90;;;;;;5014901;28;20271;-61
2024/02/19 05:26:46;;;;;;;38.80;12.60;;;8.90;99.90;;;;;;5015672;28;20225;-61
2024/02/19 05:29:14;;;;;;;26.30;12.00;;;8.90;99.90;;;;;;5021043;28;20277;-61
2024/02/19 05:31:42;;;;;;;33.90;11.80;;;8.90;99.90;;;;;;4997398;28;20221;-61
2024/02/19 05:34:10;;;;;;;36.77;12.00;;;8.90;99.90;;;;;;4994887;28;20249;-61
2024/02/19 05:36:39;;;;;;;34.67;12.57;;;8.90;99.90;;;;;;4996739;28;20214;-61
2024/02/19 05:39:10;;;;;;;25.67;11.17;;;8.90;99.90;;;;;;4995016;28;20258;-61
2024/02/19 05:41:39;;;;;;;25.70;11.70;;;8.90;99.90;;;;;;4993592;28;20253;-61
2024/02/19 05:44:09;;;;;;;29.90;11.53;;;8.90;99.90;;;;;;5000567;28;20194;-61
2024/02/19 05:46:38;;;;;;;28.80;11.60;;;8.90;99.90;;;;;;4997169;28;20225;-61
2024/02/19 05:49:06;;;;;;;32.87;12.00;;;8.80;99.90;;;;;;4998707;28;20701;-61
2024/02/19 05:51:34;;;;;;;37.53;12.40;;;8.80;99.90;;;;;;4994098;28;20223;-61
2024/02/19 05:54:02;;;;;;;29.73;11.47;;;8.90;99.90;;;;;;4998809;28;20233;-61
2024/02/19 05:56:32;;;;;;;30.30;11.67;;;8.90;99.90;;;;;;4989846;28;20547;-61
2024/02/19 05:59:01;;;;;;;33.30;11.50;;;8.80;99.90;;;;;;4994972;28;20285;-61
2024/02/19 06:01:29;;;;;;;35.37;12.47;;;8.80;99.90;;;;;;4991944;28;20221;-61
2024/02/19 06:03:57;;;;;;;35.23;11.67;;;8.80;99.90;;;;;;4997346;28;20573;-61
2024/02/19 06:06:26;;;;;;;27.63;12.07;;;8.80;99.90;;;;;;4993161;28;20249;-61
2024/02/19 06:08:54;;;;;;;30.00;11.53;;;8.80;99.90;;;;;;4994500;28;20266;-61
2024/02/19 06:11:22;;;;;;;28.47;11.50;;;8.80;99.90;;;;;;4994981;28;20633;-61
2024/02/19 06:13:54;;;;;;;25.03;11.63;;;8.80;99.90;;;;;;5002377;28;20652;-61
2024/02/19 06:16:23;;;;;;;28.30;11.00;;;8.90;99.90;;;;;;4995455;28;20237;-61
2024/02/19 06:18:52;;;;;;;35.47;12.30;;;8.90;99.90;;;;;;4999432;28;20717;-62
2024/02/19 06:21:21;;;;;;;33.63;12.17;;;8.90;99.90;;;;;;5002462;28;20612;-61
2024/02/19 06:23:49;;;;;;;34.00;12.20;;;8.90;99.90;;;;;;4995467;28;20226;-61
2024/02/19 06:26:17;;;;;;;30.63;11.93;;;8.90;99.90;;;;;;4994869;28;20221;-60
2024/02/19 06:28:46;;;;;;;31.37;11.70;;;8.90;99.90;;;;;;4999770;28;20194;-62
2024/02/19 06:31:15;;;;;;;26.50;11.20;;;8.80;99.90;;;;;;5002461;28;20297;-62
2024/02/19 06:33:44;;;;;;;27.80;11.03;;;8.80;99.90;;;;;;4998555;28;20701;-61
2024/02/19 06:36:12;;;;;;;36.30;11.53;;;8.90;99.90;;;;;;4999366;28;20268;-61
2024/02/19 06:38:41;;;;;;;27.33;12.33;;;8.90;99.90;;;;;;4999732;28;20226;-61
2024/02/19 06:41:09;;;;;;;27.30;12.40;;;8.80;99.90;;;;;;4997781;28;20200;-61
2024/02/19 06:43:37;;;;;;;27.17;12.50;;;8.90;99.90;;;;;;4993476;28;20231;-61
2024/02/19 06:46:06;;;;;;;35.77;12.30;;;8.80;99.90;;;;;;4997625;28;20237;-61
2024/02/19 06:48:35;;;;;;;27.37;12.30;;;8.80;99.90;;;;;;4999518;28;20257;-62
2024/02/19 06:51:05;;;;;;;28.03;12.73;;;8.80;99.90;;;;;;4997816;28;20250;-61
2024/02/19 06:53:33;;;;;;;33.03;12.80;;;8.80;99.90;;;;;;4997980;28;20210;-62
2024/02/19 06:56:01;;;;;;;31.40;12.87;;;8.80;99.90;;;;;;5019535;28;20210;-62
2024/02/19 06:58:29;;;;;;;31.80;13.37;;;8.80;99.90;;;;;;5020281;28;20717;-61
2024/02/19 07:00:57;;;;;;;29.90;12.37;;;8.90;99.90;;;;;;5013934;28;20226;-62
2024/02/19 07:03:26;;;;;;;27.73;12.77;;;8.90;99.90;;;;;;5011131;28;20227;-61
2024/02/19 07:05:56;;;;;;;27.47;12.70;;;8.90;99.90;;;;;;5017735;28;20229;-61
2024/02/19 07:08:25;;;;;;;27.13;12.60;;;8.90;99.90;;;;;;5015963;28;20194;-61
2024/02/19 07:10:53;;;;;;;38.37;13.53;;;8.80;99.90;;;;;;5022137;28;20320;-61
2024/02/19 07:13:21;;;;;;;29.90;12.43;;;8.80;99.90;;;;;;5018689;28;20217;-61
2024/02/19 07:15:49;;;;;;;34.80;13.30;;;8.80;99.90;;;;;;5017217;28;20213;-61
2024/02/19 07:18:18;;;;;;;30.73;13.47;;;8.70;99.90;;;;;;5015485;28;20218;-62
2024/02/19 07:20:46;;;;;;;28.13;13.00;;;8.70;99.90;;;;;;5012981;28;20225;-61
2024/02/19 07:23:16;;;;;;;22.60;12.50;;;8.70;99.90;;;;;;5012821;28;20202;-61
2024/02/19 07:25:44;;;;;;;29.13;12.60;;;8.70;99.90;;;;;;4990963;28;20219;-61
2024/02/19 07:28:13;;;;;;;27.33;12.17;;;8.80;99.90;;;;;;4991967;28;20554;-61
2024/02/19 07:30:41;;;;;;;32.00;12.67;;;8.90;99.90;;;;;;4999720;28;20218;-61
2024/02/19 07:33:09;;;;;;;32.73;12.93;;;8.90;99.90;;;;;;4999020;28;20720;-62
2024/02/19 07:35:38;;;;;;;31.43;12.93;;;8.90;99.90;;;;;;4984611;28;20227;-61
2024/02/19 07:38:06;;;;;;;33.97;13.73;;;9.00;99.90;;;;;;4996350;28;20604;-61
2024/02/19 07:40:36;;;;;;;28.90;12.87;;;9.00;99.90;;;;;;4991606;28;20231;-61
2024/02/19 07:43:04;;;;;;;25.77;11.60;;;9.10;99.90;;;;;;4991134;28;20227;-61
2024/02/19 07:45:33;;;;;;;32.97;11.93;;;9.20;99.90;;;;;;4987218;28;20572;-61
2024/02/19 07:48:02;;;;;;;30.30;12.03;;;9.30;99.90;;;;;;4989716;28;20234;-61
2024/02/19 07:50:31;;;;;;;28.03;11.33;;;9.30;99.90;;;;;;4992573;28;20195;-61
2024/02/19 07:52:59;;;;;;;24.20;11.30;;;9.40;99.90;;;;;;4988757;28;20210;-61
2024/02/19 07:55:27;;;;;;;25.27;11.07;;;9.40;99.90;;;;;;4997705;28;20230;-61
2024/02/19 07:57:57;;;;;;;34.27;11.73;;;9.50;99.90;;;;;;4999246;28;20242;-61
2024/02/19 08:00:25;;;;;;;22.13;11.77;;;9.60;99.90;;;;;;4997288;28;20230;-61
2024/02/19 08:02:54;;;;;;;29.03;10.93;;;9.70;99.90;;;;;;4993040;28;20245;-61
2024/02/19 08:05:22;;;;;;;19.60;10.40;;;9.80;99.90;;;;;;4983339;28;20231;-61
2024/02/19 08:07:51;;;;;;;26.40;10.10;;;9.90;99.90;;;;;;4989266;28;20210;-62
2024/02/19 08:10:19;;;;;;;23.07;10.13;;;10.00;99.90;;;;;;4991882;28;20222;-61
2024/02/19 08:12:47;;;;;;;27.70;9.60;;;10.00;99.90;;;;;;4989171;28;20704;-61
2024/02/19 08:15:17;;;;;;;28.13;9.70;;;10.00;99.90;;;;;;4993772;28;20234;-61
2024/02/19 08:17:46;;;;;;;22.17;9.53;;;10.00;99.90;;;;;;4991788;28;20701;-61
2024/02/19 08:20:14;;;;;;;26.87;9.63;;;9.90;99.90;;;;;;4993359;28;20201;-61
2024/02/19 08:22:43;;;;;;;29.43;10.10;;;9.90;99.90;;;;;;4994564;28;20562;-61
2024/02/19 08:25:14;;;;;;;29.13;10.60;;;9.90;99.90;;;;;;4994106;28;20709;-62
2024/02/19 08:27:42;;;;;;;19.30;9.20;;;9.90;99.90;;;;;;5021854;28;20238;-61
2024/02/19 08:30:11;;;;;;;22.57;9.03;;;9.90;99.90;;;;;;4995327;28;20227;-61
2024/02/19 08:32:43;;;;;;;25.40;9.63;;;9.80;99.90;;;;;;4991354;28;20226;-62
2024/02/19 08:35:15;;;;;;;23.70;9.20;;;9.80;99.90;;;;;;4984595;28;20194;-61
2024/02/19 08:37:43;;;;;;;26.70;10.50;;;9.70;99.90;;;;;;5012156;28;20209;-61
2024/02/19 08:40:12;;;;;;;20.73;10.20;;;9.70;99.90;;;;;;5016907;28;20599;-61
2024/02/19 08:42:40;;;;;;;21.27;9.50;;;9.70;99.90;;;;;;5000873;28;20238;-61
2024/02/19 08:45:09;;;;;;;23.57;10.17;;;9.70;99.90;;;;;;4993476;28;20230;-62
2024/02/19 08:47:38;;;;;;;27.43;10.27;;;9.70;99.90;;;;;;4999576;28;20229;-62
2024/02/19 08:50:08;;;;;;;25.63;10.20;;;9.80;99.90;;;;;;5013022;28;20194;-62
2024/02/19 08:52:36;;;;;;;18.07;9.70;;;9.90;99.90;;;;;;5010129;28;20811;-62
2024/02/19 08:55:05;;;;;;;23.20;9.37;;;10.00;99.90;;;;;;5010026;28;20230;-62
2024/02/19 08:57:34;;;;;;;24.33;9.17;;;10.10;99.90;;;;;;5014762;28;20681;-62
2024/02/19 09:00:04;;;;;;;26.50;9.00;;;10.20;99.90;;;;;;5018811;28;20582;-62
2024/02/19 09:02:32;;;;;;;21.87;8.70;;;10.20;99.90;;;;;;5012272;28;20301;-61
2024/02/19 09:05:00;;;;;;;15.03;8.00;;;10.30;99.90;;;;;;5005594;28;20208;-62
2024/02/19 09:07:31;;;;;;;15.93;7.30;;;10.40;99.90;;;;;;5006494;28;20261;-61
2024/02/19 09:09:59;;;;;;;20.23;7.80;;;10.30;99.90;;;;;;5010263;28;20253;-61
2024/02/19 09:12:28;;;;;;;24.40;8.27;;;10.30;99.90;;;;;;5009880;28;20301;-62
2024/02/19 09:14:58;;;;;;;21.63;8.67;;;10.30;99.90;;;;;;5010770;28;20711;-62
2024/02/19 09:17:26;;;;;;;16.33;8.97;;;10.30;99.90;;;;;;5017704;28;20190;-62
2024/02/19 09:19:55;;;;;;;15.67;8.70;;;10.30;99.90;;;;;;5040893;28;20222;-62
2024/02/19 09:22:23;;;;;;;21.63;9.83;;;10.40;99.90;;;;;;5014210;28;20238;-61
2024/02/19 09:24:53;;;;;;;14.23;9.20;;;10.40;99.90;;;;;;5013787;28;20217;-62
2024/02/19 09:27:21;;;;;;;20.40;9.97;;;10.50;99.90;;;;;;5004919;28;20225;-61
2024/02/19 09:29:50;;;;;;;20.77;10.23;;;10.50;99.90;;;;;;5008583;28;20241;-62
2024/02/19 09:32:18;;;;;;;22.17;11.20;;;10.50;99.90;;;;;;5011359;28;20294;-61
2024/02/19 09:34:47;;;;;;;24.77;11.90;;;10.50;99.90;;;;;;5012611;28;20561;-61
2024/02/19 09:37:15;;;;;;;22.43;11.50;;;10.40;99.90;;;;;;4993288;28;20219;-62
2024/02/19 09:39:49;;;;;;;26.03;12.27;;;10.30;99.90;;;;;;4992581;28;21076;-61
2024/02/19 09:42:19;;;;;;;21.63;12.60;;;10.20;99.90;;;;;;4994500;28;20305;-62
2024/02/19 09:44:48;;;;;;;26.80;12.27;;;10.10;99.90;;;;;;4991831;28;20539;-62
2024/02/19 09:47:20;;;;;;;23.17;12.63;;;10.10;99.90;;;;;;5000699;28;20206;-60
2024/02/19 09:49:48;;;;;;;25.73;13.30;;;10.10;99.90;;;;;;4994060;28;20193;-62
2024/02/19 09:52:22;;;;;;;24.67;13.13;;;10.00;99.90;;;;;;4994010;28;20244;-62
2024/02/19 09:54:55;;;;;;;27.83;13.50;;;10.00;99.90;;;;;;5001768;28;20562;-61
2024/02/19 09:57:28;;;;;;;25.20;13.47;;;10.00;99.90;;;;;;5007112;28;20210;-62
2024/02/19 09:59:58;;;;;;;27.93;15.07;;;10.00;99.90;;;;;;4998958;28;20289;-61
2024/02/19 10:02:26;;;;;;;34.47;15.07;;;9.90;99.90;;;;;;4990005;28;20222;-61
2024/02/19 10:04:54;;;;;;;33.77;16.43;;;9.80;99.90;;;;;;4993290;28;20205;-62
2024/02/19 10:07:23;;;;;;;35.03;16.97;;;9.80;99.90;;;;;;4996575;28;20233;-61
2024/02/19 10:09:51;;;;;;;36.17;17.17;;;9.70;99.90;;;;;;4997637;28;20666;-62
2024/02/19 10:12:20;;;;;;;35.60;16.40;;;9.80;99.90;;;;;;4995760;28;20313;-62
2024/02/19 10:14:49;;;;;;;36.37;16.87;;;9.80;99.90;;;;;;4995783;28;20761;-62
2024/02/19 10:17:22;;;;;;;36.73;16.50;;;9.80;99.90;;;;;;4997356;28;20618;-62
2024/02/19 10:20:01;;;;;;;34.87;16.33;;;9.80;99.90;;;;;;5015833;28;20189;-61
2024/02/19 10:22:29;;;;;;;32.00;16.23;;;9.80;99.90;;;;;;5019811;28;20689;-62
2024/02/19 10:24:57;;;;;;;36.70;16.83;;;9.90;99.90;;;;;;5021423;28;20704;-62
2024/02/19 10:27:30;;;;;;;41.47;16.10;;;9.90;99.90;;;;;;5017476;28;20720;-61
2024/02/19 10:30:00;;;;;;;34.60;15.83;;;9.90;99.90;;;;;;5014393;28;20245;-61
2024/02/19 10:32:29;;;;;;;31.20;15.07;;;9.90;99.90;;;;;;5016371;28;20508;-61
2024/02/19 10:34:57;;;;;;;31.57;14.37;;;10.00;99.90;;;;;;5016405;28;20198;-62
2024/02/19 10:37:26;;;;;;;29.27;13.97;;;10.00;99.90;;;;;;5012495;28;20233;-62
2024/02/19 10:39:54;;;;;;;26.47;13.67;;;10.00;99.90;;;;;;5012414;28;20225;-62
2024/02/19 10:42:23;;;;;;;30.20;14.17;;;10.10;99.90;;;;;;5016152;28;20233;-61
2024/02/19 10:44:53;;;;;;;30.67;13.60;;;10.10;99.90;;;;;;5013745;28;20754;-62
2024/02/19 10:47:25;;;;;;;29.70;13.40;;;10.10;99.90;;;;;;5012777;28;20715;-61
2024/02/19 10:49:57;;;;;;;28.30;13.50;;;10.10;99.90;;;;;;5016451;28;20232;-62
2024/02/19 10:52:28;;;;;;;25.37;12.50;;;10.10;99.90;;;;;;5012395;28;20825;-61
2024/02/19 10:54:57;;;;;;;31.10;12.87;;;10.10;99.90;;;;;;5017742;28;20237;-61
2024/02/19 10:57:50;;;;;;;29.63;13.10;;;10.10;99.90;;;;;;5014729;28;20217;-62
2024/02/19 11:00:25;;;;;;;24.73;12.30;;;10.10;99.90;;;;;;5010860;28;20220;-62
2024/02/19 11:03:05;;;;;;;30.50;12.00;;;10.10;99.90;;;;;;5017207;28;20928;-61
2024/02/19 11:05:38;;;;;;;23.73;11.77;;;10.10;99.90;;;;;;5007830;28;20273;-61
2024/02/19 11:08:19;;;;;;;24.87;12.57;;;10.10;99.90;;;;;;5012099;28;20224;-62
2024/02/19 11:10:48;;;;;;;29.43;12.77;;;10.20;99.90;;;;;;5001751;28;20220;-61
2024/02/19 11:13:20;;;;;;;24.67;12.77;;;10.30;99.90;;;;;;4993159;28;20231;-62
2024/02/19 11:15:49;;;;;;;26.10;10.97;;;10.40;99.90;;;;;;4995103;28;20700;-61
2024/02/19 11:18:20;;;;;;;19.77;10.87;;;10.40;99.90;;;;;;4992451;28;20278;-61
2024/02/19 11:20:49;;;;;;;24.97;10.57;;;10.50;99.90;;;;;;4995263;28;20218;-61
2024/02/19 11:23:20;;;;;;;20.23;10.07;;;10.50;99.90;;;;;;4991719;28;20313;-61
2024/02/19 11:25:48;;;;;;;19.47;9.53;;;10.50;99.90;;;;;;4992231;28;20674;-61
2024/02/19 11:28:17;;;;;;;18.27;9.27;;;10.50;99.90;;;;;;4991945;28;21995;-62
2024/02/19 11:30:45;;;;;;;17.93;10.07;;;10.50;99.90;;;;;;4992314;28;20225;-61
2024/02/19 11:33:16;;;;;;;15.83;9.43;;;10.60;99.90;;;;;;4996673;28;20231;-61
2024/02/19 11:35:46;;;;;;;17.27;9.57;;;10.50;99.90;;;;;;4993553;28;20230;-61
2024/02/19 11:38:14;;;;;;;22.43;9.20;;;10.50;99.90;;;;;;5014942;28;20518;-61
2024/02/19 11:40:43;;;;;;;17.37;9.10;;;10.50;99.90;;;;;;5016075;28;20215;-61
2024/02/19 11:43:11;;;;;;;20.57;9.30;;;10.50;99.90;;;;;;5013604;28;20752;-61
2024/02/19 11:45:39;;;;;;;17.03;9.30;;;10.40;99.90;;;;;;5008651;28;20763;-61
2024/02/19 11:48:08;;;;;;;17.10;9.10;;;10.40;99.90;;;;;;5011695;28;20317;-62
2024/02/19 11:50:37;;;;;;;19.93;9.93;;;10.40;99.90;;;;;;5015432;28;20325;-62
2024/02/19 11:53:09;;;;;;;18.23;8.93;;;10.40;99.90;;;;;;5012816;28;20269;-62
2024/02/19 11:55:38;;;;;;;19.37;10.73;;;10.40;99.90;;;;;;5014526;28;20218;-62
2024/02/19 11:58:10;;;;;;;19.67;10.63;;;10.30;99.90;;;;;;5012080;28;20220;-62
2024/02/19 12:00:38;;;;;;;20.40;10.70;;;10.40;99.90;;;;;;5020654;28;20272;-62
2024/02/19 12:03:06;;;;;;;19.03;10.33;;;10.40;99.90;;;;;;5016550;28;20226;-62
2024/02/19 12:05:35;;;;;;;23.77;11.03;;;10.40;99.90;;;;;;5014835;28;20229;-61
2024/02/19 12:08:05;;;;;;;18.77;10.37;;;10.40;99.90;;;;;;5010192;28;20203;-62
2024/02/19 12:10:36;;;;;;;16.73;9.73;;;10.40;99.90;;;;;;5007449;28;20241;-62
2024/02/19 12:13:06;;;;;;;21.23;10.17;;;10.40;99.90;;;;;;5016341;28;20629;-62
2024/02/19 12:15:35;;;;;;;18.37;9.97;;;10.40;99.90;;;;;;5013791;28;20238;-62
2024/02/19 12:18:04;;;;;;;15.80;9.00;;;10.50;99.90;;;;;;5017009;28;20312;-61
2024/02/19 12:20:32;;;;;;;15.47;9.23;;;10.60;99.90;;;;;;5013881;28;20194;-61
2024/02/19 12:23:01;;;;;;;20.47;9.80;;;10.70;99.90;;;;;;5012245;28;20198;-62
2024/02/19 12:25:29;;;;;;;16.37;8.77;;;10.90;99.90;;;;;;5010691;28;20237;-62
2024/02/19 12:27:59;;;;;;;15.63;8.50;;;11.10;99.90;;;;;;5046547;28;20228;-62
2024/02/19 12:30:27;;;;;;;16.33;8.37;;;11.30;99.90;;;;;;5017958;28;20713;-62
2024/02/19 12:32:55;;;;;;;14.50;7.83;;;11.40;99.90;;;;;;5017259;28;20229;-62
2024/02/19 12:35:24;;;;;;;21.87;8.13;;;11.40;99.90;;;;;;5015904;28;20221;-62
2024/02/19 12:37:52;;;;;;;17.83;7.47;;;11.40;99.90;;;;;;5017651;28;20205;-61
2024/02/19 12:40:20;;;;;;;14.90;7.53;;;11.40;99.90;;;;;;5016970;28;20221;-61
2024/02/19 12:42:49;;;;;;;14.40;7.60;;;11.30;99.90;;;;;;5015520;28;20261;-62
2024/02/19 12:45:19;;;;;;;15.30;6.87;;;11.30;99.90;;;;;;5015341;28;20284;-61